createdAt,value
2022-09-22T00:01:49.602Z,62.80
2022-09-22T00:06:53.833Z,63.30
2022-09-22T00:11:56.133Z,63.90
2022-09-22T00:17:01.878Z,64.30
2022-09-22T00:22:06.612Z,64.80
2022-09-22T00:27:09.102Z,64.90
2022-09-22T00:32:11.766Z,64.60
2022-09-22T00:37:15.634Z,64.40
2022-09-22T00:42:17.976Z,64.20
2022-09-22T00:47:31.875Z,64.00
2022-09-22T00:52:40.859Z,64.80
2022-09-22T00:57:44.800Z,64.90
2022-09-22T01:02:50.734Z,64.90
2022-09-22T01:07:54.689Z,65.50
2022-09-22T01:13:07.454Z,65.30
2022-09-22T01:18:20.046Z,65.70
2022-09-22T01:23:48.947Z,65.90
2022-09-22T01:29:15.023Z,67.30
2022-09-22T01:34:27.075Z,66.60
2022-09-22T01:39:35.334Z,66.00
2022-09-22T01:44:43.998Z,65.90
2022-09-22T01:49:52.213Z,65.80
2022-09-22T01:54:58.683Z,66.10
2022-09-22T02:00:06.236Z,66.00
2022-09-22T02:05:15.738Z,66.50
2022-09-22T02:10:23.524Z,67.00
2022-09-22T02:15:26.194Z,67.00
2022-09-22T02:20:30.651Z,67.00
2022-09-22T02:25:33.843Z,67.50
2022-09-22T02:30:36.697Z,67.50
2022-09-22T02:35:43.556Z,67.20
2022-09-22T02:40:51.743Z,67.30
2022-09-22T02:46:00.385Z,67.30
2022-09-22T02:51:05.035Z,67.50
2022-09-22T02:56:07.694Z,66.80
2022-09-22T03:01:10.036Z,66.40
2022-09-22T03:06:13.857Z,66.30
2022-09-22T03:11:16.231Z,66.40
2022-09-22T03:16:18.540Z,66.40
2022-09-22T03:21:22.528Z,66.90
2022-09-22T03:26:24.755Z,67.70
2022-09-22T03:31:27.095Z,68.00
2022-09-22T03:36:30.856Z,68.40
2022-09-22T03:41:33.159Z,69.20
2022-09-22T03:46:35.555Z,69.10
2022-09-22T03:51:41.355Z,69.50
2022-09-22T03:56:45.837Z,70.10
2022-09-22T04:01:48.750Z,70.80
2022-09-22T04:06:52.943Z,71.00
2022-09-22T04:11:55.875Z,71.00
2022-09-22T04:16:58.451Z,71.30
2022-09-22T04:22:02.532Z,71.20
2022-09-22T04:27:21.243Z,71.30
2022-09-22T04:32:23.940Z,71.30
2022-09-22T04:37:27.773Z,71.40
2022-09-22T04:42:30.159Z,71.40
2022-09-22T04:47:32.539Z,71.20
2022-09-22T04:52:36.303Z,71.70
2022-09-22T04:57:38.912Z,72.40
2022-09-22T05:02:41.427Z,72.50
2022-09-22T05:07:47.713Z,73.00
2022-09-22T05:12:51.079Z,73.30
2022-09-22T05:17:55.151Z,72.90
2022-09-22T05:22:59.023Z,72.40
2022-09-22T05:28:01.735Z,72.00
2022-09-22T05:33:04.789Z,71.80
2022-09-22T05:38:08.967Z,72.10
2022-09-22T05:43:11.282Z,72.40
2022-09-22T05:48:13.663Z,72.40
2022-09-22T05:53:17.661Z,72.30
2022-09-22T05:58:20.871Z,71.90
2022-09-22T06:03:23.833Z,71.30
2022-09-22T06:08:27.810Z,70.20
2022-09-22T06:13:30.114Z,69.60
2022-09-22T06:18:33.277Z,68.90
2022-09-22T06:23:42.014Z,68.20
2022-09-22T06:28:45.661Z,66.60
2022-09-22T06:33:47.932Z,65.30
2022-09-22T06:38:52.070Z,64.20
2022-09-22T06:43:55.127Z,62.50
2022-09-22T06:48:57.795Z,61.80
2022-09-22T06:54:03.131Z,60.60
2022-09-22T06:59:10.212Z,59.00
2022-09-22T07:04:13.628Z,58.30
2022-09-22T07:09:17.482Z,57.70
2022-09-22T07:14:20.683Z,57.10
2022-09-22T07:19:23.276Z,56.00
2022-09-22T07:24:27.754Z,55.60
2022-09-22T07:29:32.572Z,55.50
2022-09-22T07:34:35.217Z,55.40
2022-09-22T07:39:39.426Z,54.50
2022-09-22T07:44:44.442Z,52.60
2022-09-22T07:49:47.695Z,52.10
2022-09-22T07:54:51.666Z,51.40
2022-09-22T07:59:54.044Z,49.90
2022-09-22T08:04:56.607Z,49.90
2022-09-22T08:10:01.864Z,49.60
2022-09-22T08:15:05.164Z,49.20
2022-09-22T08:20:09.584Z,47.50
2022-09-22T08:25:13.986Z,48.10
2022-09-22T08:30:18.069Z,47.30
2022-09-22T08:35:20.555Z,47.30
2022-09-22T08:40:25.106Z,47.10
2022-09-22T08:45:34.140Z,47.00
2022-09-22T08:50:44.079Z,46.10
2022-09-22T08:55:55.808Z,44.30
2022-09-22T09:01:07.896Z,44.60
2022-09-22T09:06:13.581Z,44.50
2022-09-22T09:11:31.567Z,45.00
2022-09-22T09:16:46.975Z,44.80
2022-09-22T09:21:55.435Z,44.90
2022-09-22T09:27:04.026Z,44.90
2022-09-22T09:32:13.456Z,44.60
2022-09-22T09:37:17.643Z,43.40
2022-09-22T09:42:25.576Z,43.60
2022-09-22T09:47:46.879Z,43.60
2022-09-22T09:52:49.470Z,43.20
2022-09-22T09:58:08.920Z,43.40
2022-09-22T10:03:18.860Z,42.20
2022-09-22T10:08:22.298Z,42.60
2022-09-22T10:13:29.949Z,42.30
2022-09-22T10:18:37.220Z,42.40
2022-09-22T10:23:39.843Z,41.50
2022-09-22T10:28:45.000Z,41.40
2022-09-22T10:33:56.813Z,40.60
2022-09-22T10:39:00.005Z,41.10
2022-09-22T10:49:55.036Z,41.20
2022-09-22T10:55:14.879Z,41.10
2022-09-22T11:00:20.820Z,40.80
2022-09-22T11:05:34.816Z,41.70
2022-09-22T11:10:43.174Z,41.40
2022-09-22T11:16:06.682Z,41.00
2022-09-22T11:21:20.905Z,40.60
2022-09-22T11:26:49.096Z,38.60
2022-09-22T11:32:03.407Z,38.60
2022-09-22T11:37:18.771Z,38.90
2022-09-22T11:42:28.314Z,39.70
2022-09-22T11:47:56.916Z,39.50
2022-09-22T11:53:25.078Z,37.80
2022-09-22T11:58:29.688Z,37.70
2022-09-22T12:03:39.957Z,38.40
2022-09-22T12:08:48.698Z,39.10
2022-09-22T12:13:53.779Z,38.40
2022-09-22T12:19:03.350Z,37.70
2022-09-22T12:24:10.625Z,38.10
2022-09-22T12:29:25.944Z,38.70
2022-09-22T12:34:34.313Z,38.60
2022-09-22T12:39:41.414Z,39.10
2022-09-22T12:44:49.679Z,40.00
2022-09-22T12:49:58.089Z,40.60
2022-09-22T12:55:18.671Z,40.20
2022-09-22T13:00:27.822Z,40.60
2022-09-22T13:05:35.817Z,41.00
2022-09-22T13:10:53.960Z,41.20
2022-09-22T13:15:58.663Z,41.20
2022-09-22T13:21:18.388Z,40.50
2022-09-22T13:26:23.493Z,40.20
2022-09-22T13:31:27.011Z,40.30
2022-09-22T13:36:31.139Z,41.40
2022-09-22T13:41:45.579Z,41.00
2022-09-22T13:46:50.691Z,41.60
2022-09-22T13:51:59.016Z,42.10
2022-09-22T13:57:03.960Z,42.30
2022-09-22T14:02:12.698Z,42.40
2022-09-22T14:07:18.665Z,42.00
2022-09-22T14:12:21.408Z,42.20
2022-09-22T14:17:27.028Z,42.10
2022-09-22T14:22:33.627Z,41.80
2022-09-22T14:27:50.592Z,42.10
2022-09-22T14:32:54.053Z,41.90
2022-09-22T14:38:06.357Z,42.20
2022-09-22T14:43:25.029Z,42.30
2022-09-22T14:48:33.920Z,43.00
2022-09-22T14:53:44.009Z,43.00
2022-09-22T14:58:52.603Z,43.60
2022-09-22T15:04:00.471Z,43.50
2022-09-22T15:09:05.391Z,43.50
2022-09-22T15:14:36.554Z,43.60
2022-09-22T15:19:39.874Z,43.20
2022-09-22T15:30:52.681Z,43.70
2022-09-22T15:36:16.266Z,43.80
2022-09-22T15:41:19.640Z,43.90
2022-09-22T15:46:31.956Z,44.10
2022-09-22T15:51:38.273Z,44.10
2022-09-22T15:56:42.112Z,44.30
2022-09-22T16:01:47.014Z,44.40
2022-09-22T16:06:55.006Z,44.50
2022-09-22T16:11:57.784Z,44.70
2022-09-22T16:17:02.754Z,45.00
2022-09-22T16:22:05.694Z,45.50
2022-09-22T16:27:08.394Z,45.60
2022-09-22T16:32:12.722Z,46.00
2022-09-22T16:37:16.845Z,46.10
2022-09-22T16:42:23.516Z,46.10
2022-09-22T16:47:30.641Z,46.40
2022-09-22T16:52:34.353Z,46.90
2022-09-22T16:57:37.144Z,46.80
2022-09-22T17:02:41.540Z,47.00
2022-09-22T17:07:44.073Z,47.80
2022-09-22T17:12:46.634Z,48.10
2022-09-22T17:17:50.547Z,48.50
2022-09-22T17:22:52.995Z,49.20
2022-09-22T17:27:56.088Z,49.30
2022-09-22T17:33:00.356Z,49.70
2022-09-22T17:38:03.386Z,50.10
2022-09-22T17:43:06.119Z,50.30
2022-09-22T17:48:10.153Z,50.50
2022-09-22T17:53:12.534Z,50.70
2022-09-22T17:58:15.277Z,50.90
2022-09-22T18:03:19.178Z,51.20
2022-09-22T18:08:21.708Z,51.60
2022-09-22T18:13:24.042Z,51.90
2022-09-22T18:18:27.839Z,52.30
2022-09-22T18:23:30.549Z,52.70
2022-09-22T18:28:34.235Z,53.00
2022-09-22T18:33:38.246Z,53.50
2022-09-22T18:38:40.746Z,53.80
2022-09-22T18:43:43.258Z,54.00
2022-09-22T18:48:50.412Z,54.20
2022-09-22T18:53:52.764Z,54.80
2022-09-22T18:58:55.799Z,54.90
2022-09-22T19:04:00.011Z,55.40
2022-09-22T19:09:02.714Z,55.90
2022-09-22T19:14:05.323Z,56.60
2022-09-22T19:19:09.201Z,56.20
2022-09-22T19:24:11.702Z,56.30
2022-09-22T19:29:14.299Z,56.20
2022-09-22T19:34:18.388Z,56.50
2022-09-22T19:39:20.813Z,56.70
2022-09-22T19:44:23.696Z,56.90
2022-09-22T19:49:27.713Z,57.20
2022-09-22T19:54:30.108Z,57.60
2022-09-22T19:59:32.829Z,57.70
2022-09-22T20:04:36.724Z,58.10
2022-09-22T20:09:40.058Z,58.50
2022-09-22T20:14:42.527Z,58.50
2022-09-22T20:19:46.932Z,58.50
2022-09-22T20:24:50.616Z,58.90
2022-09-22T20:29:56.990Z,58.90
2022-09-22T20:35:01.731Z,59.00
2022-09-22T20:40:07.416Z,59.30
2022-09-22T20:45:11.774Z,59.40
2022-09-22T20:50:16.293Z,59.80
2022-09-22T20:55:19.288Z,59.90
2022-09-22T21:00:21.635Z,60.00
2022-09-22T21:05:25.618Z,60.10
2022-09-22T21:10:28.138Z,60.70
2022-09-22T21:15:30.724Z,60.60
2022-09-22T21:20:34.707Z,60.80
2022-09-22T21:25:37.164Z,61.30
2022-09-22T21:30:39.668Z,61.40
2022-09-22T21:35:43.855Z,61.40
2022-09-22T21:40:46.694Z,61.90
2022-09-22T21:45:58.242Z,61.90
2022-09-22T21:51:07.993Z,62.30
2022-09-22T21:56:12.309Z,62.10
2022-09-22T22:01:16.693Z,62.00
2022-09-22T22:06:22.745Z,62.20
2022-09-22T22:11:28.865Z,62.70
2022-09-22T22:16:32.934Z,63.10
2022-09-22T22:21:37.720Z,62.90
2022-09-22T22:26:40.205Z,62.80
2022-09-22T22:31:42.591Z,62.50
2022-09-22T22:36:47.251Z,62.70
2022-09-22T22:41:49.606Z,63.10
2022-09-22T22:46:51.909Z,63.10
2022-09-22T22:51:55.741Z,63.60
2022-09-22T22:56:58.081Z,64.60
2022-09-22T23:02:00.479Z,64.50
2022-09-22T23:07:04.428Z,64.80
2022-09-22T23:12:07.142Z,65.30
2022-09-22T23:17:09.505Z,65.60
2022-09-22T23:22:13.358Z,65.70
2022-09-22T23:27:16.014Z,66.30
2022-09-22T23:32:18.907Z,66.00
2022-09-22T23:37:23.016Z,66.20
2022-09-22T23:42:25.786Z,66.30
2022-09-22T23:47:28.234Z,66.10
2022-09-22T23:52:32.452Z,66.10
2022-09-22T23:57:34.821Z,66.70
